Terminal Aerodrome Forecast
Issued by NWS Pueblo, CO

Home | Current Version | Previous Version | Text Only | Print | Product List | Glossary On
Versions: 1 2 3 4 5 6 7 8 9 10 11 12 13 14 15 16 17 18 19 20 21 22 23 24 25 26 27 28 29 30 31 32 33 34 35 36 37 38 39 40 41 42 43 44 45 46 47 48 49 50
000
FTUS45 KPUB 301732
TAFCOS
TAF
KCOS 301732Z 3018/3118 06007KT P6SM VCSH BKN015 BKN040
     FM302100 12012KT P6SM VCTS BKN025CB BKN040
     FM310200 14008KT P6SM VCSH SCT015 BKN025
     FM310600 VRB06KT 3SM BR BKN015
     FM311100 15006KT 1SM BR BKN008
     FM311600 16006KT 5SM BR SCT008 BKN025=

USA.gov is the U.S. government's official web portal to all federal, state and local government web resources and services.